Time;durP1;ratioP1;P1;durP2;ratioP2;P2;SDS_P1;SDS_P2;PMS_P1;PMS_P2;Temp;Humidity;BMP_temperature;BMP_pressure;BME280_temperature;BME280_humidity;BME280_pressure;Samples;Min_cycle;Max_cycle;Signal;HPM_P1;HPM_P2
2022/11/10 00:00:40;;;;;;;5.97;3.50;;;;;;;14.50;63.90;97562.28;4868272;28;20392;-76
2022/11/10 00:03:07;;;;;;;7.75;3.63;;;;;;;14.42;64.31;97566.97;4862741;28;20217;-76
2022/11/10 00:05:32;;;;;;;8.18;3.65;;;;;;;14.38;64.37;97568.53;4864554;29;20183;-76
2022/11/10 00:08:03;;;;;;;7.95;3.80;;;;;;;14.48;64.00;97566.97;4849716;29;20645;-76
2022/11/10 00:10:28;;;;;;;7.15;4.25;;;;;;;14.24;64.84;97562.25;4863886;28;20314;-76
2022/11/10 00:12:54;;;;;;;6.63;4.00;;;;;;;14.35;64.54;97570.91;4860756;28;20624;-76
2022/11/10 00:18:04;;;;;;;7.03;3.80;;;;;;;14.40;64.01;97579.53;4863067;29;20530;-74
2022/11/10 00:20:30;;;;;;;10.63;3.97;;;;;;;14.21;64.81;97581.06;4864091;29;20171;-75
2022/11/10 00:22:55;;;;;;;6.22;3.92;;;;;;;14.33;64.11;97592.09;4847568;29;20735;-75
2022/11/10 00:25:21;;;;;;;7.35;4.10;;;;;;;14.24;64.47;97594.44;4863713;28;20202;-75
2022/11/10 00:27:46;;;;;;;7.35;4.22;;;;;;;14.30;64.71;97605.72;4865903;29;20206;-75
2022/11/10 00:30:12;;;;;;;8.05;4.35;;;;;;;14.36;64.47;97607.31;4865734;29;20305;-75
2022/11/10 00:32:37;;;;;;;7.45;3.78;;;;;;;14.35;64.37;97610.19;4865466;28;20425;-75
2022/11/10 00:35:03;;;;;;;8.25;4.05;;;;;;;14.36;64.39;97606.50;4866425;28;20794;-76
2022/11/10 00:37:28;;;;;;;10.73;4.43;;;;;;;14.35;64.65;97605.72;4871869;28;20196;-75
2022/11/10 00:39:53;;;;;;;9.63;4.38;;;;;;;14.37;64.74;97614.13;4866685;28;20652;-76
2022/11/10 00:42:19;;;;;;;7.88;4.22;;;;;;;14.34;64.19;97619.88;4866662;28;20306;-75
2022/11/10 00:44:45;;;;;;;9.38;4.95;;;;;;;14.31;64.31;97624.81;4864878;28;20295;-76
2022/11/10 00:47:11;;;;;;;7.55;4.07;;;;;;;14.37;64.40;97621.19;4862320;28;20305;-76
2022/11/10 00:49:37;;;;;;;10.18;3.83;;;;;;;14.43;64.46;97630.66;4889180;28;20247;-75
2022/11/10 00:52:03;;;;;;;10.25;5.72;;;;;;;14.39;64.49;97622.53;4890284;28;20258;-76
2022/11/10 00:54:28;;;;;;;8.88;4.55;;;;;;;14.41;64.08;97636.16;4861861;28;20336;-76
2022/11/10 00:56:54;;;;;;;11.23;5.18;;;;;;;14.41;64.49;97635.34;4862093;28;20202;-76
2022/11/10 00:59:19;;;;;;;10.35;5.82;;;;;;;14.47;64.44;97638.78;4884845;28;20726;-76
2022/11/10 01:01:44;;;;;;;12.45;5.90;;;;;;;14.48;64.51;97633.28;4885127;28;20601;-76
2022/11/10 01:04:09;;;;;;;9.93;5.28;;;;;;;14.41;64.33;97636.16;4858532;28;20262;-75
2022/11/10 01:06:35;;;;;;;9.93;5.07;;;;;;;14.43;63.74;97639.28;4883561;28;20244;-75
2022/11/10 01:09:00;;;;;;;9.98;6.43;;;;;;;14.31;64.00;97637.94;4868883;28;20337;-75
2022/11/10 01:11:27;;;;;;;12.35;6.10;;;;;;;14.19;64.46;97651.25;4868444;28;20362;-75
2022/11/10 01:13:54;;;;;;;8.65;5.38;;;;;;;14.28;63.88;97652.34;4868266;28;20222;-76
2022/11/10 01:16:26;;;;;;;7.80;5.15;;;;;;;14.29;64.02;97658.34;4828874;28;20372;-75
2022/11/10 01:18:57;;;;;;;8.00;4.40;;;;;;;14.30;63.80;97654.69;4869543;28;20172;-75
2022/11/10 01:21:23;;;;;;;14.50;5.63;;;;;;;14.18;64.04;97663.56;4868625;28;20681;-76
2022/11/10 01:23:48;;;;;;;10.35;4.75;;;;;;;14.10;63.72;97671.88;4884419;28;20227;-76
2022/11/10 01:26:14;;;;;;;8.85;5.30;;;;;;;14.10;63.58;97671.09;4868308;28;20206;-76
2022/11/10 01:28:40;;;;;;;8.40;4.82;;;;;;;14.03;63.70;97677.38;4869098;28;20186;-76
2022/11/10 01:31:09;;;;;;;9.90;4.97;;;;;;;14.09;63.98;97678.19;4868937;28;20171;-76
2022/11/10 01:33:35;;;;;;;8.35;4.45;;;;;;;14.04;63.91;97684.16;4869635;28;20665;-76
2022/11/10 01:36:00;;;;;;;11.85;5.75;;;;;;;14.05;63.86;97680.53;4855027;29;20243;-76
2022/11/10 01:38:31;;;;;;;10.77;4.93;;;;;;;14.00;64.27;97683.13;4868872;28;20157;-76
2022/11/10 01:40:57;;;;;;;10.13;4.70;;;;;;;13.89;63.71;97681.47;4862831;28;20701;-76
2022/11/10 01:43:23;;;;;;;11.13;4.20;;;;;;;13.89;63.97;97684.09;4849638;28;20087;-76
2022/11/10 01:46:14;;;;;;;7.57;4.20;;;;;;;14.02;63.85;97686.25;4838008;29;20194;-76
2022/11/10 01:48:52;;;;;;;8.93;4.95;;;;;;;13.91;63.79;97683.84;4860208;28;20291;-75
2022/11/10 01:51:24;;;;;;;9.07;4.55;;;;;;;13.71;63.64;97689.72;4866969;28;20272;-76
2022/11/10 01:53:57;;;;;;;6.70;4.20;;;;;;;13.85;63.69;97690.88;4878449;28;20872;-76
2022/11/10 01:56:24;;;;;;;10.35;5.47;;;;;;;13.74;63.78;97690.00;4864887;28;20207;-76
2022/11/10 01:58:55;;;;;;;7.45;5.03;;;;;;;13.73;63.85;97695.50;4848538;29;20644;-76
2022/11/10 02:01:20;;;;;;;9.05;4.43;;;;;;;13.62;64.18;97692.81;4876564;28;20214;-76
2022/11/10 02:03:50;;;;;;;10.52;4.57;;;;;;;13.60;64.45;97691.47;4850688;29;20624;-76
2022/11/10 02:06:16;;;;;;;11.98;5.30;;;;;;;13.35;66.21;97686.84;4879155;28;20215;-75
2022/11/10 02:08:43;;;;;;;10.90;4.72;;;;;;;13.47;65.38;97693.50;4889986;28;20589;-76
2022/11/10 02:11:08;;;;;;;16.88;6.53;;;;;;;13.51;65.54;97691.16;4849503;29;20203;-76
2022/11/10 02:13:34;;;;;;;10.32;5.32;;;;;;;13.59;65.04;97693.31;4848825;29;20251;-75
2022/11/10 02:15:59;;;;;;;10.55;5.53;;;;;;;13.64;65.06;97693.34;4883897;28;20146;-75
2022/11/10 02:18:24;;;;;;;10.50;4.97;;;;;;;13.64;64.99;97701.22;4866868;28;20207;-75
2022/11/10 02:20:50;;;;;;;9.68;4.75;;;;;;;13.60;64.48;97705.34;4869166;28;21782;-75
2022/11/10 02:23:32;;;;;;;12.20;5.13;;;;;;;13.73;63.96;97708.59;4883361;28;20207;-76
2022/11/10 02:25:57;;;;;;;8.55;4.68;;;;;;;13.51;64.18;97704.25;4863953;28;20177;-75
2022/11/10 02:28:24;;;;;;;13.07;6.00;;;;;;;13.48;64.83;97712.59;4852292;28;20727;-76
2022/11/10 02:30:50;;;;;;;10.15;4.35;;;;;;;13.40;64.53;97697.34;4883422;28;20265;-76
2022/11/10 02:33:16;;;;;;;11.10;5.82;;;;;;;13.41;64.74;97712.00;4882982;28;20322;-76
2022/11/10 02:35:42;;;;;;;10.63;5.30;;;;;;;13.37;64.84;97710.94;4852210;29;20701;-75
2022/11/10 02:38:08;;;;;;;10.65;5.63;;;;;;;13.40;64.59;97710.41;4867936;29;20156;-75
2022/11/10 02:40:33;;;;;;;8.23;5.00;;;;;;;13.47;65.19;97716.25;4855547;28;20173;-76
2022/11/10 02:42:58;;;;;;;8.63;5.63;;;;;;;13.47;64.59;97711.81;4882401;28;20337;-75
2022/11/10 02:45:23;;;;;;;13.57;5.93;;;;;;;13.43;64.70;97707.31;4863448;28;20577;-76
2022/11/10 02:47:49;;;;;;;9.52;5.47;;;;;;;13.38;64.69;97707.25;4869163;28;20656;-76
2022/11/10 02:50:15;;;;;;;13.07;5.30;;;;;;;13.40;64.11;97715.66;4871787;28;20266;-75
2022/11/10 02:52:40;;;;;;;8.68;5.53;;;;;;;13.36;64.12;97717.19;4867192;28;20168;-76
2022/11/10 02:55:06;;;;;;;8.68;5.57;;;;;;;13.33;64.40;97720.31;4882640;28;20284;-76
2022/11/10 02:57:31;;;;;;;10.50;5.18;;;;;;;13.35;64.36;97710.38;4869017;28;20759;-76
2022/11/10 02:59:56;;;;;;;13.25;5.78;;;;;;;13.25;65.08;97717.06;4855023;29;20226;-75
2022/11/10 03:02:22;;;;;;;9.55;5.32;;;;;;;13.25;64.86;97718.91;4867107;28;20361;-76
2022/11/10 03:04:47;;;;;;;10.25;5.40;;;;;;;13.28;64.77;97729.66;4866447;28;20250;-76
2022/11/10 03:07:12;;;;;;;6.95;4.20;;;;;;;13.22;64.14;97732.47;4889417;28;20168;-76
2022/11/10 03:09:38;;;;;;;10.38;5.07;;;;;;;13.12;64.45;97738.38;4867243;28;20267;-76
2022/11/10 03:12:03;;;;;;;12.05;5.60;;;;;;;13.15;64.26;97735.28;4835101;29;20246;-76
2022/11/10 03:14:28;;;;;;;9.55;5.70;;;;;;;13.12;65.00;97735.78;4881663;28;20286;-76
2022/11/10 03:16:54;;;;;;;13.23;5.85;;;;;;;13.15;64.74;97729.28;4852031;29;20353;-76
2022/11/10 03:19:19;;;;;;;10.82;6.25;;;;;;;13.07;65.08;97730.50;4881890;28;20167;-75
2022/11/10 03:21:44;;;;;;;7.43;4.85;;;;;;;13.08;64.89;97726.84;4850316;29;20263;-76
2022/11/10 03:24:10;;;;;;;9.27;5.18;;;;;;;13.11;65.01;97723.75;4867821;28;20270;-76
2022/11/10 03:26:35;;;;;;;11.13;5.10;;;;;;;13.16;64.79;97723.81;4895453;28;20284;-75
2022/11/10 03:29:01;;;;;;;9.02;4.90;;;;;;;13.15;65.04;97732.66;4865820;28;20128;-76
2022/11/10 03:31:26;;;;;;;11.27;5.07;;;;;;;13.10;64.93;97733.41;4866450;28;20242;-76
2022/11/10 03:33:51;;;;;;;9.63;4.55;;;;;;;13.09;64.89;97751.94;4882440;28;20254;-76
2022/11/10 03:36:17;;;;;;;8.65;4.43;;;;;;;13.14;64.29;97749.38;4866161;28;20654;-75
2022/11/10 03:38:42;;;;;;;10.30;5.38;;;;;;;13.08;64.72;97751.16;4867883;28;20316;-76
2022/11/10 03:41:07;;;;;;;8.38;5.13;;;;;;;13.15;64.97;97760.66;4837253;29;20187;-76
2022/11/10 03:43:33;;;;;;;8.57;5.03;;;;;;;13.17;65.30;97763.81;4867450;28;20143;-75
2022/11/10 03:45:58;;;;;;;7.18;4.68;;;;;;;13.18;64.89;97765.38;4864364;28;20266;-76
2022/11/10 03:48:23;;;;;;;9.68;5.00;;;;;;;13.14;65.53;97772.91;4865402;28;20301;-76
2022/11/10 03:50:49;;;;;;;10.45;5.05;;;;;;;13.24;65.50;97773.00;4881410;28;20404;-76
2022/11/10 03:53:14;;;;;;;11.52;6.45;;;;;;;13.18;66.14;97776.63;4850042;29;20218;-76
2022/11/10 03:55:39;;;;;;;12.00;6.10;;;;;;;13.20;65.75;97773.78;4850351;29;20310;-75
2022/11/10 03:58:05;;;;;;;8.80;5.95;;;;;;;13.34;65.26;97779.44;4850647;29;20267;-76
2022/11/10 04:00:30;;;;;;;10.15;5.28;;;;;;;13.28;65.56;97789.81;4856215;28;20291;-76
2022/11/10 04:02:55;;;;;;;10.57;5.60;;;;;;;13.23;65.54;97791.56;4866255;28;20219;-76
2022/11/10 04:10:55;;;;;;;10.65;5.63;;;;;;;13.28;65.75;97802.06;4878288;28;20696;-76
2022/11/10 04:16:04;;;;;;;9.35;5.82;;;;;;;13.30;65.16;97795.56;4865231;28;20239;-76
2022/11/10 04:18:30;;;;;;;10.18;5.00;;;;;;;13.37;65.33;97807.72;4833910;28;20649;-76
2022/11/10 04:21:00;;;;;;;10.27;5.53;;;;;;;13.40;65.08;97804.59;4881151;28;20222;-76
2022/11/10 04:23:35;;;;;;;8.63;5.63;;;;;;;13.48;65.09;97812.00;4865001;28;20219;-76
2022/11/10 04:26:27;;;;;;;12.32;5.18;;;;;;;13.53;64.89;97817.28;4874541;28;20242;-76
2022/11/10 04:28:56;;;;;;;11.57;6.22;;;;;;;13.43;65.54;97819.78;4877751;28;20200;-76
2022/11/10 04:31:22;;;;;;;9.70;5.40;;;;;;;13.46;65.11;97817.47;4849124;29;20196;-76
2022/11/10 04:33:48;;;;;;;10.60;5.25;;;;;;;13.47;65.17;97820.91;4864985;28;20255;-76
2022/11/10 04:36:20;;;;;;;9.35;4.82;;;;;;;13.53;65.22;97824.34;4864822;28;20286;-76
2022/11/10 04:38:45;;;;;;;6.68;4.80;;;;;;;13.42;65.16;97829.47;4849301;28;20293;-75
2022/11/10 04:41:11;;;;;;;8.73;4.50;;;;;;;13.41;65.32;97833.09;4886563;28;20249;-76
2022/11/10 04:43:36;;;;;;;9.85;4.90;;;;;;;13.41;65.22;97821.88;4864596;28;20250;-76
2022/11/10 04:46:03;;;;;;;11.18;4.93;;;;;;;13.41;65.71;97827.09;4861274;28;20274;-76
2022/11/10 04:48:29;;;;;;;11.38;4.82;;;;;;;13.40;65.18;97838.59;4865017;28;20261;-75
2022/11/10 04:50:54;;;;;;;11.32;5.38;;;;;;;13.33;65.13;97835.38;4863862;28;20256;-76
2022/11/10 04:53:20;;;;;;;7.57;4.68;;;;;;;13.36;65.20;97845.34;4879560;28;20279;-75
2022/11/10 04:55:46;;;;;;;8.13;3.72;;;;;;;13.38;64.96;97854.53;4864296;28;20210;-76
2022/11/10 04:58:12;;;;;;;11.70;4.22;;;;;;;13.38;64.77;97851.13;4865235;28;20658;-76
2022/11/10 05:00:38;;;;;;;9.15;4.50;;;;;;;13.46;64.97;97863.78;4864980;28;20355;-76
2022/11/10 05:03:05;;;;;;;11.00;4.75;;;;;;;13.52;64.79;97857.56;4867435;28;20355;-75
2022/11/10 05:05:31;;;;;;;8.05;3.97;;;;;;;13.51;64.57;97850.75;4832769;29;20202;-75
2022/11/10 05:07:57;;;;;;;7.88;3.83;;;;;;;13.64;64.10;97845.13;4864917;28;20224;-76
2022/11/10 05:10:23;;;;;;;9.00;4.30;;;;;;;13.59;63.90;97850.31;4879847;28;20395;-76
2022/11/10 05:12:48;;;;;;;7.43;4.10;;;;;;;13.45;64.69;97847.28;4864489;29;20690;-76
2022/11/10 05:15:14;;;;;;;10.88;3.85;;;;;;;13.51;64.65;97848.13;4864257;28;20244;-76
2022/11/10 05:17:39;;;;;;;11.63;4.63;;;;;;;13.56;64.39;97866.50;4864637;28;20286;-76
2022/11/10 05:20:05;;;;;;;12.40;5.47;;;;;;;13.58;64.26;97879.34;4886033;28;20169;-76
2022/11/10 05:22:31;;;;;;;9.13;4.15;;;;;;;13.48;64.59;97870.31;4847525;28;20211;-75
2022/11/10 05:24:56;;;;;;;8.18;3.83;;;;;;;13.57;63.62;97881.16;4865800;28;20167;-76
2022/11/10 05:27:21;;;;;;;8.05;4.07;;;;;;;13.58;64.04;97874.09;4883099;28;20226;-76
2022/11/10 05:29:47;;;;;;;9.68;4.43;;;;;;;13.61;64.19;97890.09;4879729;28;20200;-75
2022/11/10 05:32:12;;;;;;;7.53;3.83;;;;;;;13.63;64.05;97882.78;4864036;28;20286;-75
2022/11/10 05:34:38;;;;;;;10.18;4.22;;;;;;;13.52;64.28;97883.72;4872393;28;20179;-75
2022/11/10 05:37:03;;;;;;;11.68;5.30;;;;;;;13.26;65.36;97888.66;4869607;28;20194;-75
2022/11/10 05:39:28;;;;;;;10.63;4.60;;;;;;;13.42;64.17;97883.63;4879266;28;20290;-75
2022/11/10 05:41:54;;;;;;;11.25;4.72;;;;;;;13.49;64.38;97897.28;4865879;28;20838;-74
2022/11/10 05:44:19;;;;;;;8.98;3.53;;;;;;;13.45;64.61;97904.03;4851795;28;20260;-76
2022/11/10 05:46:44;;;;;;;7.22;3.60;;;;;;;13.46;64.40;97909.03;4880482;28;20159;-75
2022/11/10 05:49:10;;;;;;;13.75;3.80;;;;;;;13.44;64.43;97916.34;4882604;28;20206;-75
2022/11/10 05:51:35;;;;;;;8.50;3.83;;;;;;;13.43;64.50;97912.13;4886070;28;20566;-76
2022/11/10 05:54:00;;;;;;;9.27;4.05;;;;;;;13.46;64.43;97921.31;4869622;29;20263;-76
2022/11/10 05:56:26;;;;;;;10.20;5.00;;;;;;;13.47;63.90;97930.78;4868235;29;20188;-75
2022/11/10 05:58:51;;;;;;;8.15;4.38;;;;;;;13.41;64.66;97942.19;4849083;29;20198;-76
2022/11/10 06:01:16;;;;;;;8.68;4.25;;;;;;;13.55;64.37;97948.63;4868680;28;20239;-75
2022/11/10 06:03:42;;;;;;;10.25;4.55;;;;;;;13.50;64.30;97945.94;4850272;29;20176;-76
2022/11/10 06:06:07;;;;;;;9.15;4.43;;;;;;;13.63;64.06;97940.34;4834297;29;20164;-76
2022/11/10 06:08:32;;;;;;;9.85;4.25;;;;;;;13.55;64.16;97943.41;4882192;28;20191;-76
2022/11/10 06:10:58;;;;;;;10.82;5.35;;;;;;;13.60;63.52;97950.53;4865568;28;20713;-76
2022/11/10 06:13:24;;;;;;;7.40;4.10;;;;;;;13.63;63.76;97958.66;4880528;28;20206;-75
2022/11/10 06:15:49;;;;;;;11.63;4.45;;;;;;;13.55;63.83;97969.56;4881554;28;20285;-76
2022/11/10 06:18:15;;;;;;;9.73;4.50;;;;;;;13.62;63.92;97979.84;4882405;28;20184;-76
2022/11/10 06:20:40;;;;;;;7.53;3.78;;;;;;;13.61;63.84;97978.28;4884124;28;20318;-75
2022/11/10 06:23:08;;;;;;;8.60;4.70;;;;;;;13.64;63.79;97988.25;4869881;29;20743;-76
2022/11/10 06:25:36;;;;;;;8.93;3.92;;;;;;;13.57;63.95;97983.22;4867402;29;20270;-76
2022/11/10 06:28:02;;;;;;;5.38;3.00;;;;;;;13.51;64.24;97984.19;4867749;29;20290;-76
2022/11/10 06:30:29;;;;;;;6.95;3.00;;;;;;;13.40;63.90;97980.66;4867833;29;20191;-76
2022/11/10 06:32:54;;;;;;;10.23;3.75;;;;;;;13.38;63.47;97993.16;4852498;29;20242;-75
2022/11/10 06:35:20;;;;;;;8.13;3.63;;;;;;;13.29;63.87;97997.97;4883325;28;20679;-75
2022/11/10 06:37:55;;;;;;;7.70;3.30;;;;;;;13.36;63.91;98000.47;4867449;29;20280;-76
2022/11/10 06:40:21;;;;;;;10.88;4.82;;;;;;;13.30;63.78;98015.28;4852418;29;20301;-76
2022/11/10 06:42:46;;;;;;;10.65;4.63;;;;;;;13.35;64.25;98021.63;4882629;28;20108;-75
2022/11/10 06:45:11;;;;;;;10.63;4.28;;;;;;;13.43;63.75;98034.28;4848388;29;20664;-76
2022/11/10 06:47:37;;;;;;;12.80;4.82;;;;;;;13.47;63.63;98045.88;4868705;29;20649;-76
2022/11/10 06:50:02;;;;;;;11.15;4.03;;;;;;;13.39;63.70;98052.28;4870241;29;20569;-76
2022/11/10 06:52:30;;;;;;;9.52;4.15;;;;;;;13.47;63.57;98051.09;4868568;29;20277;-76
2022/11/10 06:54:55;;;;;;;8.40;3.97;;;;;;;13.48;64.20;98047.44;4867123;28;20134;-75
2022/11/10 06:57:21;;;;;;;7.13;3.80;;;;;;;13.46;64.63;98044.28;4868325;29;20108;-76
2022/11/10 06:59:46;;;;;;;12.32;4.25;;;;;;;13.55;64.14;98042.03;4870396;28;20243;-76
2022/11/10 07:02:15;;;;;;;14.40;4.75;;;;;;;13.64;63.89;98045.81;4895554;28;20276;-76
2022/11/10 07:04:41;;;;;;;10.43;4.53;;;;;;;13.54;64.34;98058.75;4869307;29;20267;-76
2022/11/10 07:07:07;;;;;;;10.10;4.88;;;;;;;13.56;63.92;98060.13;4851667;29;20282;-76
2022/11/10 07:09:32;;;;;;;12.98;3.85;;;;;;;13.58;63.92;98068.50;4868096;28;20230;-76
2022/11/10 07:11:58;;;;;;;8.73;4.00;;;;;;;13.60;63.98;98076.13;4868272;29;20314;-76
2022/11/10 07:14:23;;;;;;;8.50;3.97;;;;;;;13.56;64.03;98075.81;4869500;29;20184;-76
2022/11/10 07:16:48;;;;;;;12.10;3.97;;;;;;;13.60;64.17;98089.22;4867502;28;20243;-76
2022/11/10 07:19:14;;;;;;;9.02;3.97;;;;;;;13.63;64.11;98073.03;4870158;29;20173;-75
2022/11/10 07:21:40;;;;;;;7.88;4.10;;;;;;;13.61;63.96;98078.50;4869430;28;20199;-75
2022/11/10 07:24:06;;;;;;;11.50;4.85;;;;;;;13.50;64.75;98082.00;4883431;28;20195;-76
2022/11/10 07:26:31;;;;;;;9.25;4.40;;;;;;;13.52;65.00;98082.56;4866840;28;20719;-75
2022/11/10 07:28:57;;;;;;;9.32;4.15;;;;;;;13.67;64.37;98095.88;4867305;29;20266;-75
2022/11/10 07:31:22;;;;;;;8.18;4.63;;;;;;;13.74;64.03;98092.25;4883937;28;20250;-76
2022/11/10 07:33:48;;;;;;;12.75;5.30;;;;;;;13.78;63.64;98094.16;4851482;29;20198;-75
2022/11/10 07:36:13;;;;;;;15.77;4.90;;;;;;;13.81;63.99;98098.13;4868078;29;20200;-76
2022/11/10 07:38:39;;;;;;;9.38;4.18;;;;;;;13.82;64.29;98102.31;4890804;28;20521;-76
2022/11/10 07:41:04;;;;;;;12.20;4.53;;;;;;;13.76;64.56;98106.72;4886443;28;20277;-76
2022/11/10 07:43:30;;;;;;;11.25;4.53;;;;;;;13.88;63.96;98114.47;4867135;29;20246;-76
2022/11/10 07:45:55;;;;;;;8.68;3.78;;;;;;;13.86;63.93;98125.16;4865065;28;20705;-76
2022/11/10 07:48:20;;;;;;;9.88;4.32;;;;;;;13.96;63.32;98119.25;4866909;29;20247;-76
2022/11/10 07:50:46;;;;;;;8.50;4.22;;;;;;;14.00;62.32;98123.00;4852129;29;20193;-76
2022/11/10 07:53:16;;;;;;;7.95;4.05;;;;;;;13.83;63.60;98119.63;4851690;29;20645;-76
2022/11/10 07:55:43;;;;;;;8.55;3.83;;;;;;;13.99;63.12;98121.38;4835856;29;20199;-75
2022/11/10 07:58:10;;;;;;;7.50;3.42;;;;;;;14.00;62.94;98127.41;4851881;29;20195;-75
2022/11/10 08:00:37;;;;;;;8.00;2.80;;;;;;;14.07;62.85;98122.81;4851539;29;20184;-76
2022/11/10 08:03:06;;;;;;;9.60;3.38;;;;;;;14.04;63.15;98134.53;4867777;29;20249;-75
2022/11/10 08:05:32;;;;;;;7.45;3.45;;;;;;;14.08;63.04;98137.47;4850843;29;20165;-75
2022/11/10 08:07:58;;;;;;;8.40;3.80;;;;;;;13.91;63.30;98134.09;4865155;28;20231;-76
2022/11/10 08:10:25;;;;;;;9.35;4.13;;;;;;;13.94;62.65;98147.50;4866256;28;20194;-76
2022/11/10 08:12:58;;;;;;;10.00;3.80;;;;;;;14.11;62.53;98146.69;4866804;29;20642;-76
2022/11/10 08:15:25;;;;;;;11.98;4.25;;;;;;;13.92;63.04;98152.19;4864237;29;20213;-75
2022/11/10 08:17:50;;;;;;;5.30;3.10;;;;;;;13.90;63.38;98153.47;4864976;29;20233;-76
2022/11/10 08:20:16;;;;;;;8.65;3.25;;;;;;;13.92;63.19;98165.28;4865697;29;20198;-76
2022/11/10 08:22:42;;;;;;;6.35;3.83;;;;;;;13.95;63.52;98166.63;4851092;29;20256;-75
2022/11/10 08:25:07;;;;;;;11.05;4.30;;;;;;;13.90;64.14;98167.38;4881907;28;20195;-76
2022/11/10 08:27:33;;;;;;;9.63;3.53;;;;;;;14.14;63.32;98190.72;4850623;29;20234;-76
2022/11/10 08:29:58;;;;;;;11.65;3.35;;;;;;;14.02;63.41;98189.00;4867168;29;20211;-75
2022/11/10 08:32:24;;;;;;;10.40;3.80;;;;;;;13.79;63.88;98189.97;4850718;29;20228;-76
2022/11/10 08:34:49;;;;;;;11.05;3.90;;;;;;;13.80;63.20;98190.78;4850982;29;20294;-76
2022/11/10 08:37:14;;;;;;;9.13;3.50;;;;;;;14.03;63.05;98187.97;4866579;29;20328;-75
2022/11/10 08:39:40;;;;;;;7.47;3.42;;;;;;;14.04;63.12;98197.41;4867985;29;20629;-76
2022/11/10 08:42:05;;;;;;;6.38;2.88;;;;;;;14.05;62.79;98203.41;4865673;29;20206;-76
2022/11/10 08:44:30;;;;;;;7.90;3.75;;;;;;;14.13;62.95;98210.88;4864604;28;20634;-76
2022/11/10 08:46:56;;;;;;;7.95;3.80;;;;;;;14.19;63.06;98211.75;4865038;29;20334;-76
2022/11/10 08:49:21;;;;;;;6.32;2.78;;;;;;;14.30;62.31;98210.03;4834441;29;20361;-75
2022/11/10 08:51:46;;;;;;;9.43;3.63;;;;;;;14.19;63.12;98217.78;4866118;29;20399;-76
2022/11/10 08:54:12;;;;;;;7.40;3.28;;;;;;;14.35;62.12;98218.75;4834589;29;20256;-76
2022/11/10 08:56:37;;;;;;;9.52;3.25;;;;;;;14.23;62.92;98224.09;4850193;29;20151;-76
2022/11/10 08:59:03;;;;;;;9.55;3.20;;;;;;;14.39;62.33;98232.97;4863820;29;20286;-76
2022/11/10 09:01:28;;;;;;;6.57;3.75;;;;;;;14.40;61.92;98231.91;4835225;29;20215;-76
2022/11/10 09:03:53;;;;;;;7.85;3.92;;;;;;;14.50;60.92;98233.88;4851054;29;20250;-76
2022/11/10 09:06:19;;;;;;;9.07;3.97;;;;;;;14.47;61.27;98242.22;4850906;29;20282;-76
2022/11/10 09:08:44;;;;;;;10.27;3.40;;;;;;;14.45;61.89;98244.31;4866534;28;20195;-75
2022/11/10 09:11:09;;;;;;;5.03;3.38;;;;;;;14.54;61.77;98242.03;4868651;29;20202;-76
2022/11/10 09:13:35;;;;;;;6.90;3.05;;;;;;;14.66;61.40;98255.06;4865866;29;20210;-76
2022/11/10 09:16:01;;;;;;;7.32;3.28;;;;;;;14.67;61.46;98248.78;4835639;29;20735;-76
2022/11/10 09:18:27;;;;;;;7.88;2.47;;;;;;;14.91;60.78;98265.06;4867685;28;20207;-76
2022/11/10 09:20:53;;;;;;;10.23;4.10;;;;;;;14.97;59.83;98262.22;4870766;28;20223;-76
2022/11/10 09:23:18;;;;;;;6.50;3.20;;;;;;;15.04;59.18;98267.28;4886334;28;20614;-76
2022/11/10 09:25:49;;;;;;;6.40;2.75;;;;;;;15.00;60.09;98266.22;4885581;28;20278;-75
2022/11/10 09:28:15;;;;;;;6.00;3.58;;;;;;;14.97;58.88;98277.19;4870458;29;20234;-76
2022/11/10 09:30:43;;;;;;;5.88;2.60;;;;;;;14.92;58.88;98287.63;4854324;29;20673;-76
2022/11/10 09:33:09;;;;;;;4.13;2.53;;;;;;;14.80;58.63;98279.88;4878115;28;20648;-76
2022/11/10 09:35:34;;;;;;;6.30;2.45;;;;;;;14.92;57.97;98283.16;4885592;28;20148;-75
2022/11/10 09:37:59;;;;;;;8.50;2.75;;;;;;;14.64;59.10;98281.53;4870105;29;20294;-76
2022/11/10 09:40:49;;;;;;;6.95;2.63;;;;;;;14.79;59.44;98280.94;4871823;28;20078;-75
2022/11/10 09:43:46;;;;;;;8.02;3.03;;;;;;;14.64;59.53;98278.91;4873390;29;20118;-75
2022/11/10 09:46:34;;;;;;;10.10;3.47;;;;;;;14.74;60.05;98279.03;4869447;28;20369;-75
2022/11/10 09:49:33;;;;;;;10.00;3.03;;;;;;;14.98;59.50;98284.81;4853490;29;20206;-76
2022/11/10 09:51:59;;;;;;;5.65;2.15;;;;;;;15.03;58.56;98280.66;4869492;29;20278;-75
2022/11/10 09:54:43;;;;;;;6.47;2.53;;;;;;;15.41;57.34;98277.13;4869571;29;20362;-76
2022/11/10 09:57:14;;;;;;;5.10;2.45;;;;;;;15.44;57.23;98276.63;4885379;28;20250;-75
2022/11/10 09:59:41;;;;;;;8.18;2.75;;;;;;;15.45;56.03;98272.94;4869653;29;20672;-75
2022/11/10 10:02:32;;;;;;;7.45;3.08;;;;;;;15.81;55.06;98283.00;4870036;29;20211;-76
2022/11/10 10:05:34;;;;;;;7.80;2.40;;;;;;;16.00;54.71;98286.03;4867666;29;20215;-75
2022/11/10 10:08:05;;;;;;;7.85;2.60;;;;;;;15.84;55.49;98285.13;4867358;29;20434;-76
2022/11/10 10:10:43;;;;;;;4.43;2.53;;;;;;;15.94;55.32;98290.47;4869124;28;20244;-75
2022/11/10 10:13:45;;;;;;;5.95;2.50;;;;;;;15.98;55.07;98296.78;4869397;29;20278;-75
2022/11/10 10:16:16;;;;;;;5.97;3.25;;;;;;;15.79;56.07;98298.22;4869386;29;20353;-75
2022/11/10 10:19:03;;;;;;;8.88;2.90;;;;;;;15.94;56.22;98302.78;4838207;29;20213;-75
2022/11/10 10:21:31;;;;;;;8.80;3.03;;;;;;;15.94;55.26;98308.03;4871046;29;20760;-75
2022/11/10 10:23:58;;;;;;;8.68;3.35;;;;;;;15.91;55.36;98306.72;4884704;28;20208;-75
2022/11/10 10:26:27;;;;;;;4.72;2.75;;;;;;;15.86;55.19;98307.47;4853644;29;20189;-75
2022/11/10 10:28:54;;;;;;;5.97;2.80;;;;;;;15.80;55.41;98310.28;4869155;28;20250;-75
2022/11/10 10:31:31;;;;;;;4.68;2.55;;;;;;;16.06;55.60;98309.47;4868761;29;20832;-75
2022/11/10 10:33:56;;;;;;;6.80;2.78;;;;;;;16.18;54.51;98311.13;4864412;28;20878;-75
2022/11/10 10:36:25;;;;;;;5.78;2.70;;;;;;;16.25;54.42;98303.81;4851904;29;20235;-75
2022/11/10 10:38:56;;;;;;;4.22;2.60;;;;;;;16.45;53.86;98301.31;4852329;28;20179;-75
2022/11/10 10:41:24;;;;;;;4.68;2.45;;;;;;;16.27;55.55;98305.13;4864291;29;20685;-74
2022/11/10 10:43:51;;;;;;;5.93;2.35;;;;;;;16.37;55.16;98303.63;4888026;28;20619;-74
2022/11/10 10:46:25;;;;;;;4.10;2.35;;;;;;;16.53;54.40;98300.00;4868564;28;20020;-74
2022/11/10 10:49:07;;;;;;;4.68;2.35;;;;;;;16.73;53.81;98307.22;4869862;28;20034;-74
2022/11/10 10:51:32;;;;;;;5.32;2.03;;;;;;;16.47;54.53;98293.16;4873138;29;20102;-75
2022/11/10 10:53:57;;;;;;;2.80;1.63;;;;;;;16.29;54.42;98297.78;4857381;29;20936;-74
2022/11/10 10:56:26;;;;;;;3.47;1.95;;;;;;;16.58;53.85;98297.41;4874849;29;20027;-74
2022/11/10 10:58:57;;;;;;;4.38;2.15;;;;;;;16.85;53.47;98297.31;4881007;28;20273;-75
2022/11/10 11:01:28;;;;;;;5.00;1.70;;;;;;;16.61;53.69;98299.53;4880406;28;20629;-75
2022/11/10 11:03:53;;;;;;;4.03;1.70;;;;;;;16.57;53.18;98290.59;4880431;28;20192;-75
2022/11/10 11:06:24;;;;;;;4.82;1.75;;;;;;;16.52;53.54;98295.81;4852476;29;20231;-75
2022/11/10 11:09:13;;;;;;;4.38;1.73;;;;;;;16.64;53.08;98293.78;4867910;28;20850;-75
2022/11/10 11:11:40;;;;;;;3.47;1.92;;;;;;;16.45;53.29;98305.75;4880927;28;20562;-74
2022/11/10 11:14:17;;;;;;;3.75;1.35;;;;;;;16.67;53.00;98301.16;4864574;29;20195;-74
2022/11/10 11:16:51;;;;;;;4.47;1.48;;;;;;;17.01;52.87;98295.50;4885631;28;20195;-75
2022/11/10 11:19:19;;;;;;;3.97;1.50;;;;;;;16.96;52.29;98290.22;4852195;29;20207;-75
2022/11/10 11:22:09;;;;;;;2.80;1.52;;;;;;;17.14;51.64;98291.63;4851519;29;20215;-75
2022/11/10 11:24:50;;;;;;;3.38;1.58;;;;;;;17.44;50.99;98292.72;4869278;29;20363;-75
2022/11/10 11:27:34;;;;;;;4.43;1.17;;;;;;;17.91;49.67;98302.28;4869445;28;20234;-75
2022/11/10 11:30:12;;;;;;;2.58;1.48;;;;;;;18.11;48.31;98298.84;4867506;29;20214;-75
2022/11/10 11:32:40;;;;;;;2.55;1.55;;;;;;;18.39;47.25;98296.69;4837098;29;20266;-76
2022/11/10 11:35:14;;;;;;;6.18;1.60;;;;;;;18.29;47.53;98307.25;4868569;29;20642;-75
2022/11/10 11:37:49;;;;;;;3.13;1.48;;;;;;;18.13;48.80;98312.53;4867364;29;20308;-76
2022/11/10 11:40:24;;;;;;;5.50;1.73;;;;;;;17.90;48.17;98318.34;4851361;29;20191;-75
2022/11/10 11:43:02;;;;;;;4.45;1.63;;;;;;;17.55;49.22;98314.59;4866347;29;20207;-75
2022/11/10 11:45:39;;;;;;;3.03;1.23;;;;;;;17.23;49.65;98326.91;4865584;28;20721;-75